createdAt,value
2022-11-13T00:00:00.715Z,21.40
2022-11-13T00:02:47.957Z,18.43
2022-11-13T00:05:36.067Z,17.57
2022-11-13T00:08:22.619Z,14.27
2022-11-13T00:11:12.424Z,14.43
2022-11-13T00:13:59.395Z,16.10
2022-11-13T00:16:45.989Z,16.33
2022-11-13T00:19:32.903Z,16.63
2022-11-13T00:22:21.266Z,17.83
2022-11-13T00:25:08.528Z,16.77
2022-11-13T00:27:55.334Z,17.37
2022-11-13T00:30:42.325Z,16.10
2022-11-13T00:33:54.867Z,12.77
2022-11-13T00:36:35.792Z,15.07
2022-11-13T00:39:24.222Z,15.40
2022-11-13T00:42:11.029Z,13.73
2022-11-13T00:44:58.085Z,13.47
2022-11-13T00:47:44.849Z,13.43
2022-11-13T00:50:32.934Z,13.30
2022-11-13T00:53:19.667Z,15.53
2022-11-13T00:56:08.171Z,14.07
2022-11-13T00:58:54.684Z,15.97
2022-11-13T01:01:41.553Z,13.97
2022-11-13T01:04:30.231Z,16.63
2022-11-13T01:07:16.819Z,12.17
2022-11-13T01:10:03.638Z,13.80
2022-11-13T01:12:51.643Z,15.37
2022-11-13T01:15:40.073Z,12.23
2022-11-13T01:18:26.957Z,16.27
2022-11-13T01:21:16.589Z,14.90
2022-11-13T01:24:03.421Z,12.93
2022-11-13T01:26:50.443Z,14.23
2022-11-13T01:29:40.046Z,14.03
2022-11-13T01:32:26.731Z,13.53
2022-11-13T01:35:13.620Z,13.83
2022-11-13T01:38:00.306Z,13.23
2022-11-13T01:40:47.287Z,12.93
2022-11-13T01:43:37.079Z,13.87
2022-11-13T01:46:28.402Z,14.37
2022-11-13T01:49:28.519Z,14.73
2022-11-13T01:52:18.834Z,14.17
2022-11-13T01:55:09.929Z,11.90
2022-11-13T01:57:57.551Z,11.33
2022-11-13T02:00:44.263Z,13.03
2022-11-13T02:03:32.642Z,11.60
2022-11-13T02:06:21.494Z,17.67
2022-11-13T02:09:08.710Z,12.80
2022-11-13T02:11:56.035Z,13.33
2022-11-13T02:14:46.647Z,13.77
2022-11-13T02:17:38.582Z,13.77
2022-11-13T02:20:33.399Z,14.60
2022-11-13T02:23:29.368Z,12.27
2022-11-13T02:26:20.980Z,15.67
2022-11-13T02:29:07.995Z,13.80
2022-11-13T02:31:54.909Z,12.80
2022-11-13T02:34:41.586Z,15.13
2022-11-13T02:37:28.488Z,14.70
2022-11-13T02:40:16.619Z,13.57
2022-11-13T02:43:04.738Z,17.13
2022-11-13T02:45:51.446Z,15.73
2022-11-13T02:48:38.294Z,16.07
2022-11-13T02:51:25.342Z,16.87
2022-11-13T02:54:16.504Z,16.27
2022-11-13T02:57:03.831Z,15.10
2022-11-13T02:59:52.266Z,20.90
2022-11-13T03:02:38.837Z,14.70
2022-11-13T03:05:25.817Z,15.33
2022-11-13T03:08:12.617Z,16.57
2022-11-13T03:10:59.947Z,14.70
2022-11-13T03:13:46.736Z,14.77
2022-11-13T03:16:36.575Z,14.37
2022-11-13T03:19:23.394Z,15.03
2022-11-13T03:22:10.159Z,14.53
2022-11-13T03:24:57.357Z,12.83
2022-11-13T03:27:43.928Z,12.60
2022-11-13T03:30:31.156Z,14.73
2022-11-13T03:33:19.235Z,11.47
2022-11-13T03:36:06.762Z,13.77
2022-11-13T03:38:53.777Z,12.40
2022-11-13T03:41:40.561Z,11.40
2022-11-13T03:44:27.421Z,10.17
2022-11-13T03:47:14.578Z,11.17
2022-11-13T03:50:02.531Z,11.13
2022-11-13T03:52:49.331Z,14.17
2022-11-13T03:55:36.251Z,12.10
2022-11-13T03:58:23.236Z,8.93
2022-11-13T04:01:10.263Z,8.67
2022-11-13T04:03:56.866Z,10.93
2022-11-13T04:06:44.978Z,9.47
2022-11-13T04:09:31.711Z,13.87
2022-11-13T04:12:18.573Z,9.37
2022-11-13T04:15:06.361Z,11.10
2022-11-13T04:17:53.265Z,9.47
2022-11-13T04:20:40.238Z,10.00
2022-11-13T04:23:28.269Z,9.70
2022-11-13T04:26:14.961Z,11.33
2022-11-13T04:29:01.668Z,10.00
2022-11-13T04:31:48.552Z,9.03
2022-11-13T04:34:35.321Z,7.93
2022-11-13T04:37:22.171Z,10.93
2022-11-13T04:40:12.207Z,10.47
2022-11-13T04:42:57.872Z,10.53
2022-11-13T04:45:44.757Z,10.47
2022-11-13T04:48:31.737Z,11.40
2022-11-13T04:51:19.078Z,9.07
2022-11-13T04:54:05.774Z,10.90
2022-11-13T04:56:53.856Z,7.53
2022-11-13T04:59:40.632Z,8.63
2022-11-13T05:02:27.444Z,9.53
2022-11-13T05:05:14.548Z,10.90
2022-11-13T05:08:01.228Z,9.60
2022-11-13T05:10:48.267Z,8.77
2022-11-13T05:13:37.710Z,12.10
2022-11-13T05:16:24.535Z,9.67
2022-11-13T05:19:11.472Z,8.17
2022-11-13T05:21:58.251Z,8.70
2022-11-13T05:24:45.002Z,8.33
2022-11-13T05:27:32.021Z,9.97
2022-11-13T05:30:20.219Z,11.77
2022-11-13T05:33:07.062Z,9.57
2022-11-13T05:35:53.890Z,10.77
2022-11-13T05:38:41.219Z,11.60
2022-11-13T05:41:28.231Z,10.17
2022-11-13T05:44:15.191Z,10.27
2022-11-13T05:47:03.493Z,9.87
2022-11-13T05:49:49.922Z,15.13
2022-11-13T05:52:36.702Z,13.27
2022-11-13T05:55:23.802Z,14.77
2022-11-13T05:58:11.779Z,11.30
2022-11-13T06:01:07.479Z,9.93
2022-11-13T06:03:56.838Z,13.50
2022-11-13T06:06:43.885Z,18.13
2022-11-13T06:09:30.755Z,14.80
2022-11-13T06:12:17.602Z,15.90
2022-11-13T06:15:04.640Z,15.30
2022-11-13T06:17:51.449Z,15.10
2022-11-13T06:20:40.000Z,18.50
2022-11-13T06:23:26.925Z,14.33
2022-11-13T06:26:16.771Z,15.43
2022-11-13T06:29:05.131Z,15.90
2022-11-13T06:31:52.066Z,16.90
2022-11-13T06:34:38.943Z,17.10
2022-11-13T06:37:28.787Z,13.20
2022-11-13T06:40:18.253Z,16.60
2022-11-13T06:43:05.066Z,14.50
2022-11-13T06:45:51.708Z,15.17
2022-11-13T06:48:38.591Z,12.77
2022-11-13T06:51:26.633Z,13.53
2022-11-13T06:54:14.499Z,13.63
2022-11-13T06:57:01.269Z,11.83
2022-11-13T06:59:48.063Z,13.60
2022-11-13T07:02:34.939Z,11.93
2022-11-13T07:05:21.714Z,11.33
2022-11-13T07:08:08.452Z,10.20
2022-11-13T07:10:58.070Z,13.07
2022-11-13T07:13:45.182Z,11.63
2022-11-13T07:16:56.149Z,11.40
2022-11-13T07:19:38.354Z,13.83
2022-11-13T07:22:25.433Z,13.13
2022-11-13T07:25:12.456Z,12.77
2022-11-13T07:28:00.754Z,11.60
2022-11-13T07:30:47.782Z,14.10
2022-11-13T07:33:35.316Z,11.60
2022-11-13T07:36:21.970Z,15.37
2022-11-13T07:39:08.914Z,13.20
2022-11-13T07:41:55.797Z,15.27
2022-11-13T07:44:59.397Z,15.53
2022-11-13T07:47:48.371Z,16.40
2022-11-13T07:50:37.602Z,15.30
2022-11-13T07:53:24.460Z,17.53
2022-11-13T07:56:11.424Z,13.97
2022-11-13T07:58:58.758Z,13.67
2022-11-13T08:01:46.764Z,13.97
2022-11-13T08:04:35.713Z,14.23
2022-11-13T08:07:22.261Z,14.07
2022-11-13T08:10:09.797Z,16.00
2022-11-13T08:13:01.308Z,14.10
2022-11-13T08:15:48.605Z,14.10
2022-11-13T08:18:37.089Z,15.90
2022-11-13T08:21:23.818Z,15.07
2022-11-13T08:24:10.861Z,15.93
2022-11-13T08:26:57.951Z,15.27
2022-11-13T08:29:44.779Z,13.97
2022-11-13T08:32:31.853Z,13.97
2022-11-13T08:35:22.120Z,14.60
2022-11-13T08:38:12.000Z,16.20
2022-11-13T08:41:08.934Z,15.07
2022-11-13T08:43:56.278Z,16.77
2022-11-13T08:46:43.188Z,15.60
2022-11-13T08:49:30.013Z,17.73
2022-11-13T08:52:18.283Z,17.43
2022-11-13T08:55:05.288Z,15.60
2022-11-13T08:57:52.378Z,15.43
2022-11-13T09:00:38.978Z,14.60
2022-11-13T09:03:25.657Z,18.63
2022-11-13T09:06:12.491Z,19.03
2022-11-13T09:09:00.631Z,15.17
2022-11-13T09:11:47.279Z,18.93
2022-11-13T09:14:35.112Z,16.57
2022-11-13T09:17:21.957Z,19.23
2022-11-13T09:20:13.544Z,15.57
2022-11-13T09:23:02.794Z,17.27
2022-11-13T09:25:51.121Z,16.67
2022-11-13T09:28:38.286Z,18.73
2022-11-13T09:31:25.139Z,15.77
2022-11-13T09:34:11.993Z,20.53
2022-11-13T09:36:58.992Z,14.67
2022-11-13T09:39:45.774Z,16.70
2022-11-13T09:42:35.630Z,13.80
2022-11-13T09:45:22.826Z,14.10
2022-11-13T09:48:19.967Z,12.87
2022-11-13T09:51:12.666Z,12.87
2022-11-13T09:54:01.176Z,14.37
2022-11-13T09:56:52.245Z,15.80
2022-11-13T09:59:46.032Z,13.10
2022-11-13T10:02:46.466Z,15.17
2022-11-13T10:05:40.929Z,14.43
2022-11-13T10:08:31.342Z,11.87
2022-11-13T10:11:28.027Z,12.07
2022-11-13T10:14:20.238Z,12.03
2022-11-13T10:17:16.022Z,11.90
2022-11-13T10:20:06.785Z,11.30
2022-11-13T10:22:57.596Z,14.33
2022-11-13T10:25:46.212Z,14.40
2022-11-13T10:28:50.113Z,11.03
2022-11-13T10:31:45.730Z,13.13
2022-11-13T10:34:34.254Z,10.70
2022-11-13T10:37:31.330Z,13.37
2022-11-13T10:40:26.226Z,11.67
2022-11-13T10:43:16.722Z,13.97
2022-11-13T10:46:05.311Z,14.70
2022-11-13T10:48:52.531Z,11.73
2022-11-13T10:51:40.851Z,11.90
2022-11-13T10:54:31.055Z,11.03
2022-11-13T10:57:26.028Z,11.80
2022-11-13T11:00:24.972Z,13.40
2022-11-13T11:03:16.791Z,13.93
2022-11-13T11:06:05.613Z,12.53
2022-11-13T11:08:53.976Z,10.67
2022-11-13T11:11:58.625Z,11.30
2022-11-13T11:15:04.630Z,11.47
2022-11-13T11:17:54.170Z,13.93
2022-11-13T11:20:46.242Z,13.53
2022-11-13T11:23:40.752Z,10.20
2022-11-13T11:26:33.612Z,10.73
2022-11-13T11:29:27.755Z,13.27
2022-11-13T11:32:22.321Z,10.00
2022-11-13T11:35:16.073Z,10.80
2022-11-13T11:38:09.751Z,11.03
2022-11-13T11:41:16.268Z,14.17
2022-11-13T11:44:12.930Z,10.90
2022-11-13T11:47:00.054Z,11.43
2022-11-13T11:49:47.350Z,14.77
2022-11-13T11:52:47.005Z,12.13
2022-11-13T11:55:59.962Z,12.83
2022-11-13T11:59:05.574Z,12.03
2022-11-13T12:02:30.667Z,13.00
2022-11-13T12:05:24.855Z,10.47
2022-11-13T12:08:21.473Z,10.23
2022-11-13T12:11:15.341Z,12.40
2022-11-13T12:14:14.789Z,13.27
2022-11-13T12:17:17.758Z,11.17
2022-11-13T12:20:18.789Z,10.30
2022-11-13T12:23:24.494Z,11.57
2022-11-13T12:26:21.215Z,12.63
2022-11-13T12:29:22.590Z,11.47
2022-11-13T12:32:20.015Z,9.33
2022-11-13T12:35:11.058Z,10.80
2022-11-13T12:38:03.784Z,11.97
2022-11-13T12:40:57.010Z,10.27
2022-11-13T12:44:04.455Z,11.10
2022-11-13T12:46:53.058Z,9.97
2022-11-13T12:49:39.564Z,12.13
2022-11-13T12:52:26.423Z,11.00
2022-11-13T12:55:27.688Z,10.40
2022-11-13T12:58:21.719Z,12.37
2022-11-13T13:01:19.510Z,10.93
2022-11-13T13:04:42.721Z,10.67
2022-11-13T13:07:47.283Z,11.37
2022-11-13T13:10:47.024Z,13.77
2022-11-13T13:13:45.915Z,11.47
2022-11-13T13:16:32.717Z,11.37
2022-11-13T13:19:31.779Z,10.50
2022-11-13T13:22:27.348Z,10.67
2022-11-13T13:25:27.049Z,9.77
2022-11-13T13:28:24.085Z,9.57
2022-11-13T13:31:23.156Z,11.47
2022-11-13T13:34:23.545Z,14.57
2022-11-13T13:37:22.578Z,12.53
2022-11-13T13:40:20.945Z,11.77
2022-11-13T13:43:20.713Z,10.17
2022-11-13T13:46:14.885Z,11.03
2022-11-13T13:49:09.405Z,11.57
2022-11-13T13:51:58.534Z,10.70
2022-11-13T13:54:46.935Z,9.83
2022-11-13T13:57:34.352Z,13.07
2022-11-13T14:00:22.555Z,9.57
2022-11-13T14:03:20.505Z,10.17
2022-11-13T14:06:19.938Z,9.23
2022-11-13T14:09:10.666Z,12.87
2022-11-13T14:12:00.565Z,10.93
2022-11-13T14:14:47.507Z,10.73
2022-11-13T14:17:35.482Z,12.23
2022-11-13T14:20:23.740Z,11.13
2022-11-13T14:23:14.801Z,11.53
2022-11-13T14:26:02.453Z,10.43
2022-11-13T14:28:54.288Z,10.23
2022-11-13T14:31:41.446Z,9.93
2022-11-13T14:34:28.655Z,11.33
2022-11-13T14:37:23.944Z,10.03
2022-11-13T14:40:20.592Z,11.00
2022-11-13T14:43:09.973Z,12.13
2022-11-13T14:45:58.561Z,11.63
2022-11-13T14:48:53.836Z,11.73
2022-11-13T14:51:40.943Z,11.10
2022-11-13T14:54:46.825Z,11.93
2022-11-13T14:57:48.980Z,11.43
2022-11-13T15:00:38.070Z,10.93
2022-11-13T15:03:25.318Z,10.70
2022-11-13T15:06:16.005Z,11.47
2022-11-13T15:09:07.398Z,13.33
2022-11-13T15:11:54.236Z,12.07
2022-11-13T15:14:43.155Z,10.70
2022-11-13T15:17:29.732Z,11.17
2022-11-13T15:20:18.123Z,14.47
2022-11-13T15:23:05.043Z,13.13
2022-11-13T15:25:51.678Z,10.53
2022-11-13T15:28:38.596Z,12.10
2022-11-13T15:31:31.568Z,12.23
2022-11-13T15:34:18.603Z,12.87
2022-11-13T15:37:12.749Z,11.00
2022-11-13T15:39:59.564Z,13.00
2022-11-13T15:42:46.543Z,12.17
2022-11-13T15:45:33.556Z,13.50
2022-11-13T15:48:21.585Z,12.77
2022-11-13T15:51:17.672Z,16.60
2022-11-13T15:54:12.562Z,12.93
2022-11-13T15:56:59.104Z,13.77
2022-11-13T15:59:45.855Z,14.20
2022-11-13T16:02:32.674Z,12.30
2022-11-13T16:05:23.583Z,14.67
2022-11-13T16:08:14.431Z,14.17
2022-11-13T16:11:01.062Z,14.80
2022-11-13T16:13:48.879Z,16.33
2022-11-13T16:16:38.219Z,14.60
2022-11-13T16:19:26.142Z,14.60
2022-11-13T16:22:22.730Z,15.53
2022-11-13T16:25:12.770Z,16.27
2022-11-13T16:27:59.618Z,16.00
2022-11-13T16:30:47.319Z,17.10
2022-11-13T16:33:34.169Z,16.17
2022-11-13T16:36:23.322Z,15.43
2022-11-13T16:39:16.575Z,17.33
2022-11-13T16:42:03.431Z,16.60
2022-11-13T16:44:50.394Z,19.67
2022-11-13T16:47:37.405Z,18.07
2022-11-13T16:50:25.580Z,19.03
2022-11-13T16:53:12.482Z,17.43
2022-11-13T16:56:01.668Z,17.73
2022-11-13T16:58:48.265Z,20.57
2022-11-13T17:01:35.050Z,19.53
2022-11-13T17:04:22.232Z,20.23
2022-11-13T17:07:10.771Z,19.33
2022-11-13T17:10:24.018Z,24.87
2022-11-13T17:13:05.352Z,20.47
2022-11-13T17:15:52.210Z,23.03
2022-11-13T17:18:39.308Z,18.93
2022-11-13T17:21:27.819Z,33.37
2022-11-13T17:24:14.642Z,22.63
2022-11-13T17:27:01.667Z,23.17
2022-11-13T17:29:49.615Z,22.40
2022-11-13T17:32:36.541Z,23.73
2022-11-13T17:35:23.407Z,19.87
2022-11-13T17:38:14.506Z,22.77
2022-11-13T17:41:06.199Z,24.27
2022-11-13T17:43:55.679Z,19.47
2022-11-13T17:46:48.601Z,20.93
2022-11-13T17:49:35.554Z,21.30
2022-11-13T17:52:22.447Z,21.77
2022-11-13T17:55:11.860Z,25.47
2022-11-13T17:58:00.895Z,24.97
2022-11-13T18:00:48.171Z,25.53
2022-11-13T18:03:36.450Z,22.73
2022-11-13T18:06:23.316Z,24.70
2022-11-13T18:09:10.124Z,23.57
2022-11-13T18:11:56.638Z,19.37
2022-11-13T18:14:43.420Z,20.53
2022-11-13T18:17:30.303Z,20.40
2022-11-13T18:20:19.029Z,36.60
2022-11-13T18:23:05.630Z,33.13
2022-11-13T18:25:52.530Z,19.57
2022-11-13T18:28:41.607Z,19.87
2022-11-13T18:31:29.139Z,21.30
2022-11-13T18:34:18.049Z,19.60
2022-11-13T18:37:06.486Z,22.23
2022-11-13T18:39:53.363Z,20.87
2022-11-13T18:42:40.040Z,21.70
2022-11-13T18:45:26.935Z,18.23
2022-11-13T18:48:13.823Z,18.27
2022-11-13T18:51:02.790Z,19.07
2022-11-13T18:53:51.999Z,21.80
2022-11-13T18:56:40.654Z,21.30
2022-11-13T18:59:27.546Z,16.20
2022-11-13T19:02:14.273Z,20.30
2022-11-13T19:05:00.815Z,20.87
2022-11-13T19:07:47.611Z,19.17
2022-11-13T19:10:36.442Z,20.27
2022-11-13T19:13:22.960Z,19.23
2022-11-13T19:16:12.656Z,18.10
2022-11-13T19:19:01.288Z,19.27
2022-11-13T19:21:48.936Z,20.77
2022-11-13T19:24:35.813Z,17.43
2022-11-13T19:27:24.131Z,19.97
2022-11-13T19:30:11.342Z,18.23
2022-11-13T19:32:57.983Z,19.70
2022-11-13T19:35:44.780Z,22.27
2022-11-13T19:38:31.937Z,17.27
2022-11-13T19:41:18.682Z,16.73
2022-11-13T19:44:07.268Z,17.73
2022-11-13T19:46:53.971Z,16.77
2022-11-13T19:49:40.960Z,16.53
2022-11-13T19:52:27.795Z,20.50
2022-11-13T19:55:14.468Z,16.63
2022-11-13T19:58:02.258Z,16.50
2022-11-13T20:00:50.308Z,19.50
2022-11-13T20:03:37.177Z,18.83
2022-11-13T20:06:24.712Z,19.60
2022-11-13T20:09:11.560Z,19.07
2022-11-13T20:11:58.414Z,24.77
2022-11-13T20:14:45.213Z,20.07
2022-11-13T20:17:33.660Z,19.70
2022-11-13T20:20:20.149Z,22.07
2022-11-13T20:23:06.987Z,19.90
2022-11-13T20:25:55.530Z,20.77
2022-11-13T20:28:42.260Z,20.53
2022-11-13T20:31:29.925Z,21.53
2022-11-13T20:34:17.907Z,19.23
2022-11-13T20:37:04.733Z,20.57
2022-11-13T20:39:51.944Z,22.00
2022-11-13T20:42:38.821Z,20.13
2022-11-13T20:45:25.731Z,17.80
2022-11-13T20:48:12.558Z,21.67
2022-11-13T20:51:06.678Z,17.83
2022-11-13T20:53:53.803Z,19.73
2022-11-13T20:56:40.365Z,27.37
2022-11-13T20:59:27.594Z,20.00
2022-11-13T21:02:14.383Z,21.73
2022-11-13T21:05:01.280Z,21.57
2022-11-13T21:07:49.662Z,20.50
2022-11-13T21:10:36.291Z,19.40
2022-11-13T21:13:23.087Z,20.57
2022-11-13T21:16:10.719Z,22.87
2022-11-13T21:18:57.571Z,21.20
2022-11-13T21:21:44.419Z,24.00
2022-11-13T21:24:32.959Z,21.57
2022-11-13T21:27:19.914Z,22.10
2022-11-13T21:30:08.052Z,25.90
2022-11-13T21:32:54.857Z,17.47
2022-11-13T21:35:41.830Z,21.57
2022-11-13T21:38:29.014Z,23.57
2022-11-13T21:41:24.682Z,24.20
2022-11-13T21:44:11.969Z,28.27
2022-11-13T21:46:58.710Z,33.17
2022-11-13T21:49:45.609Z,29.07
2022-11-13T21:52:32.583Z,30.77
2022-11-13T21:55:19.560Z,33.10
2022-11-13T21:58:08.058Z,31.60
2022-11-13T22:00:55.109Z,27.73
2022-11-13T22:03:41.995Z,28.93
2022-11-13T22:06:30.993Z,34.70
2022-11-13T22:09:19.553Z,34.80
2022-11-13T22:12:06.573Z,32.07
2022-11-13T22:14:54.551Z,39.97
2022-11-13T22:17:41.786Z,33.53
2022-11-13T22:20:28.603Z,34.53
2022-11-13T22:23:15.653Z,38.87
2022-11-13T22:26:03.452Z,36.90
2022-11-13T22:28:50.480Z,38.30
2022-11-13T22:31:39.663Z,32.70
2022-11-13T22:34:26.063Z,37.80
2022-11-13T22:37:13.189Z,35.13
2022-11-13T22:40:00.203Z,36.00
2022-11-13T22:42:47.105Z,38.73
2022-11-13T22:45:34.812Z,42.10
2022-11-13T22:48:23.191Z,40.80
2022-11-13T22:51:13.307Z,43.67
2022-11-13T22:54:01.680Z,35.83
2022-11-13T22:56:48.234Z,41.17
2022-11-13T22:59:35.244Z,37.93
2022-11-13T23:02:22.284Z,39.13
2022-11-13T23:05:10.535Z,38.27
2022-11-13T23:07:57.335Z,41.10
2022-11-13T23:10:44.325Z,38.73
2022-11-13T23:13:31.049Z,39.43
2022-11-13T23:16:19.018Z,37.80
2022-11-13T23:19:06.119Z,38.17
2022-11-13T23:21:54.101Z,41.20
2022-11-13T23:24:40.853Z,41.30
2022-11-13T23:27:27.611Z,41.27
2022-11-13T23:30:15.428Z,45.10
2022-11-13T23:33:02.257Z,38.93
2022-11-13T23:35:49.270Z,34.50
2022-11-13T23:38:37.720Z,40.20
2022-11-13T23:41:24.436Z,38.63
2022-11-13T23:44:11.244Z,38.43
2022-11-13T23:46:58.119Z,38.50
2022-11-13T23:49:45.209Z,38.63
2022-11-13T23:52:32.137Z,42.17
2022-11-13T23:55:22.529Z,40.30
2022-11-13T23:58:12.731Z,38.30
